createdAt,value
2019-01-08T00:01:35.164Z,7.40
2019-01-08T00:04:01.209Z,7.40
2019-01-08T00:06:27.536Z,7.40
2019-01-08T00:08:53.589Z,7.40
2019-01-08T00:11:19.744Z,7.30
2019-01-08T00:13:45.814Z,7.30
2019-01-08T00:16:11.863Z,7.30
2019-01-08T00:18:38.007Z,7.20
2019-01-08T00:21:04.167Z,7.20
2019-01-08T00:23:30.527Z,7.20
2019-01-08T00:25:56.707Z,7.20
2019-01-08T00:28:22.760Z,7.20
2019-01-08T00:30:48.780Z,7.10
2019-01-08T00:33:14.827Z,7.10
2019-01-08T00:35:40.963Z,7.10
2019-01-08T00:38:07.015Z,7.00
2019-01-08T00:40:33.088Z,7.00
2019-01-08T00:42:59.201Z,7.00
2019-01-08T00:45:25.240Z,7.00
2019-01-08T00:47:51.284Z,7.00
2019-01-08T00:50:17.316Z,7.00
2019-01-08T00:52:43.392Z,7.00
2019-01-08T00:55:09.435Z,7.00
2019-01-08T00:57:35.451Z,7.00
2019-01-08T01:00:01.897Z,7.10
2019-01-08T01:02:27.936Z,7.10
2019-01-08T01:04:54.098Z,7.20
2019-01-08T01:07:20.196Z,7.10
2019-01-08T01:09:46.287Z,7.20
2019-01-08T01:12:12.328Z,7.20
2019-01-08T01:14:38.351Z,7.20
2019-01-08T01:17:04.409Z,7.20
2019-01-08T01:19:30.477Z,7.10
2019-01-08T01:21:56.517Z,7.10
2019-01-08T01:24:22.535Z,7.10
2019-01-08T01:26:48.591Z,7.10
2019-01-08T01:29:14.614Z,7.20
2019-01-08T01:31:41.115Z,7.10
2019-01-08T01:34:07.148Z,7.10
2019-01-08T01:36:33.179Z,7.10
2019-01-08T01:38:59.306Z,7.10
2019-01-08T01:41:25.330Z,7.10
2019-01-08T01:43:51.352Z,7.10
2019-01-08T01:46:17.469Z,7.00
2019-01-08T01:48:43.502Z,7.00
2019-01-08T01:51:09.535Z,7.00
2019-01-08T01:53:35.571Z,7.00
2019-01-08T01:56:01.739Z,7.00
2019-01-08T01:58:27.762Z,7.00
2019-01-08T02:00:53.771Z,7.00
2019-01-08T02:03:20.159Z,7.10
2019-01-08T02:05:46.183Z,7.00
2019-01-08T02:08:12.204Z,7.00
2019-01-08T02:10:38.349Z,7.00
2019-01-08T02:13:04.360Z,6.90
2019-01-08T02:15:30.381Z,6.90
2019-01-08T02:17:56.427Z,6.90
2019-01-08T02:20:22.451Z,6.90
2019-01-08T02:22:48.491Z,6.90
2019-01-08T02:25:14.532Z,6.90
2019-01-08T02:27:40.547Z,6.90
2019-01-08T02:30:07.133Z,6.90
2019-01-08T02:32:33.248Z,6.90
2019-01-08T02:34:59.268Z,6.90
2019-01-08T02:37:29.986Z,6.90
2019-01-08T02:39:56.004Z,6.80
2019-01-08T02:42:22.052Z,6.70
2019-01-08T02:44:48.186Z,6.70
2019-01-08T02:47:14.435Z,6.50
2019-01-08T02:49:40.472Z,6.40
2019-01-08T02:52:06.492Z,6.40
2019-01-08T02:54:32.583Z,6.40
2019-01-08T02:56:58.687Z,6.30
2019-01-08T02:59:25.268Z,6.30
2019-01-08T03:01:51.710Z,6.30
2019-01-08T03:04:17.782Z,6.20
2019-01-08T03:06:43.790Z,6.20
2019-01-08T03:09:09.814Z,6.20
2019-01-08T03:11:36.002Z,6.20
2019-01-08T03:14:02.023Z,6.10
2019-01-08T03:16:28.047Z,6.20
2019-01-08T03:18:54.110Z,6.20
2019-01-08T03:21:20.129Z,6.20
2019-01-08T03:23:46.148Z,6.20
2019-01-08T03:26:12.210Z,6.10
2019-01-08T03:28:38.247Z,6.20
2019-01-08T03:31:04.268Z,6.10
2019-01-08T03:33:30.386Z,6.10
2019-01-08T03:35:56.414Z,6.10
2019-01-08T03:38:22.437Z,6.10
2019-01-08T03:40:48.483Z,6.10
2019-01-08T03:43:14.503Z,6.10
2019-01-08T03:45:40.538Z,6.10
2019-01-08T03:48:06.567Z,6.20
2019-01-08T03:50:32.602Z,6.20
2019-01-08T03:52:58.620Z,6.10
2019-01-08T03:55:24.635Z,6.20
2019-01-08T03:57:51.103Z,6.10
2019-01-08T04:00:17.117Z,6.10
2019-01-08T04:02:43.163Z,6.10
2019-01-08T04:05:09.175Z,6.10
2019-01-08T04:07:35.195Z,6.10
2019-01-08T04:10:01.435Z,6.10
2019-01-08T04:12:27.450Z,6.10
2019-01-08T04:14:53.511Z,6.10
2019-01-08T04:17:19.543Z,6.20
2019-01-08T04:19:45.571Z,6.10
2019-01-08T04:22:11.603Z,6.10
2019-01-08T04:24:37.792Z,6.10
2019-01-08T04:27:03.895Z,6.10
2019-01-08T04:29:29.943Z,6.10
2019-01-08T04:31:55.983Z,6.10
2019-01-08T04:34:22.002Z,6.10
2019-01-08T04:36:48.271Z,6.20
2019-01-08T04:39:14.284Z,6.20
2019-01-08T04:41:40.330Z,6.20
2019-01-08T04:44:06.367Z,6.20
2019-01-08T04:46:32.427Z,6.20
2019-01-08T04:48:58.453Z,6.20
2019-01-08T04:51:24.486Z,6.20
2019-01-08T04:53:50.508Z,6.20
2019-01-08T04:56:16.814Z,6.20
2019-01-08T04:58:42.864Z,6.20
2019-01-08T05:01:08.911Z,6.20
2019-01-08T05:03:35.019Z,6.20
2019-01-08T05:06:01.119Z,6.10
2019-01-08T05:08:27.135Z,6.10
2019-01-08T05:10:53.196Z,6.10
2019-01-08T05:13:19.227Z,6.10
2019-01-08T05:15:45.248Z,6.10
2019-01-08T05:18:11.298Z,6.10
2019-01-08T05:20:37.342Z,6.00
2019-01-08T05:23:03.367Z,6.00
2019-01-08T05:25:29.402Z,6.00
2019-01-08T05:27:55.527Z,6.00
2019-01-08T05:30:21.671Z,6.00
2019-01-08T05:32:47.709Z,6.00
2019-01-08T05:35:14.090Z,6.00
2019-01-08T05:37:40.112Z,6.00
2019-01-08T05:40:06.496Z,6.00
2019-01-08T05:42:34.513Z,6.00
2019-01-08T05:45:00.661Z,6.00
2019-01-08T05:47:36.545Z,6.00
2019-01-08T05:50:03.615Z,6.00
2019-01-08T05:52:29.644Z,6.10
2019-01-08T05:54:55.683Z,6.10
2019-01-08T05:57:21.711Z,6.10
2019-01-08T05:59:47.736Z,6.10
2019-01-08T06:02:13.780Z,6.10
2019-01-08T06:04:39.937Z,6.20
2019-01-08T06:07:06.027Z,6.20
2019-01-08T06:09:32.047Z,6.20
2019-01-08T06:11:58.075Z,6.30
2019-01-08T06:14:24.095Z,6.30
2019-01-08T06:16:50.140Z,6.30
2019-01-08T06:19:16.176Z,6.30
2019-01-08T06:21:42.187Z,6.30
2019-01-08T06:24:08.466Z,6.30
2019-01-08T06:26:34.484Z,6.30
2019-01-08T06:29:00.516Z,6.30
2019-01-08T06:31:26.553Z,6.30
2019-01-08T06:33:52.882Z,6.20
2019-01-08T06:36:18.899Z,6.20
2019-01-08T06:38:45.108Z,6.30
2019-01-08T06:41:11.127Z,6.30
2019-01-08T06:43:37.156Z,6.30
2019-01-08T06:46:03.218Z,6.30
2019-01-08T06:48:29.259Z,6.30
2019-01-08T06:50:56.309Z,6.30
2019-01-08T06:53:22.551Z,6.30
2019-01-08T06:55:48.589Z,6.30
2019-01-08T06:58:14.621Z,6.30
2019-01-08T07:00:40.706Z,6.20
2019-01-08T07:03:06.754Z,6.30
2019-01-08T07:05:32.775Z,6.20
2019-01-08T07:07:58.895Z,6.20
2019-01-08T07:10:24.923Z,6.10
2019-01-08T07:12:50.966Z,6.10
2019-01-08T07:15:17.006Z,6.10
2019-01-08T07:17:43.024Z,6.10
2019-01-08T07:20:09.057Z,6.10
2019-01-08T07:22:35.361Z,6.10
2019-01-08T07:25:01.375Z,6.10
2019-01-08T07:27:27.734Z,6.20
2019-01-08T07:29:53.824Z,6.20
2019-01-08T07:32:19.856Z,6.10
2019-01-08T07:34:45.900Z,6.10
2019-01-08T07:37:12.246Z,6.20
2019-01-08T07:39:38.259Z,6.20
2019-01-08T07:42:04.293Z,6.20
2019-01-08T07:44:30.356Z,6.20
2019-01-08T07:46:57.954Z,6.20
2019-01-08T07:49:24.167Z,6.30
2019-01-08T07:51:50.263Z,6.20
2019-01-08T07:54:16.377Z,6.20
2019-01-08T07:56:42.507Z,6.30
2019-01-08T07:59:08.951Z,6.30
2019-01-08T08:01:35.042Z,6.30
2019-01-08T08:04:01.218Z,6.40
2019-01-08T08:06:27.554Z,6.40
2019-01-08T08:08:54.137Z,6.40
2019-01-08T08:11:20.207Z,6.50
2019-01-08T08:13:46.322Z,6.50
2019-01-08T08:16:12.438Z,6.50
2019-01-08T08:18:38.595Z,6.50
2019-01-08T08:21:04.724Z,6.50
2019-01-08T08:23:30.737Z,6.50
2019-01-08T08:25:56.803Z,6.50
2019-01-08T08:28:22.844Z,6.60
2019-01-08T08:30:48.931Z,6.50
2019-01-08T08:33:14.987Z,6.50
2019-01-08T08:35:41.065Z,6.50
2019-01-08T08:38:07.087Z,6.60
2019-01-08T08:40:33.115Z,6.60
2019-01-08T08:42:59.172Z,6.60
2019-01-08T08:45:25.191Z,6.60
2019-01-08T08:47:51.250Z,6.60
2019-01-08T08:50:17.278Z,6.60
2019-01-08T08:52:43.342Z,6.60
2019-01-08T08:55:09.407Z,6.60
2019-01-08T08:57:35.434Z,6.60
2019-01-08T09:00:01.515Z,6.60
2019-01-08T09:02:27.713Z,6.60
2019-01-08T09:04:53.795Z,6.60
2019-01-08T09:07:20.214Z,6.60
2019-01-08T09:09:46.521Z,6.70
2019-01-08T09:12:12.588Z,6.60
2019-01-08T09:14:38.662Z,6.60
2019-01-08T09:17:04.792Z,6.60
2019-01-08T09:19:30.818Z,6.60
2019-01-08T09:21:56.892Z,6.60
2019-01-08T09:24:22.975Z,6.60
2019-01-08T09:26:49.012Z,6.60
2019-01-08T09:29:15.043Z,6.70
2019-01-08T09:31:41.117Z,6.60
2019-01-08T09:34:07.129Z,6.70
2019-01-08T09:36:33.135Z,6.60
2019-01-08T09:38:59.190Z,6.70
2019-01-08T09:41:25.206Z,6.60
2019-01-08T09:43:51.236Z,6.60
2019-01-08T09:46:17.417Z,6.60
2019-01-08T09:48:43.479Z,6.60
2019-01-08T09:51:09.583Z,6.60
2019-01-08T09:53:35.759Z,6.60
2019-01-08T09:56:01.794Z,6.60
2019-01-08T09:58:27.795Z,6.60
2019-01-08T10:00:53.836Z,6.60
2019-01-08T10:03:19.850Z,6.60
2019-01-08T10:05:46.116Z,6.60
2019-01-08T10:08:12.187Z,6.60
2019-01-08T10:10:38.221Z,6.60
2019-01-08T10:13:04.252Z,6.60
2019-01-08T10:15:30.378Z,6.50
2019-01-08T10:17:56.415Z,6.50
2019-01-08T10:20:22.446Z,6.50
2019-01-08T10:22:48.743Z,6.60
2019-01-08T10:25:14.767Z,6.60
2019-01-08T10:27:40.858Z,6.70
2019-01-08T10:30:08.897Z,6.70
2019-01-08T10:32:34.910Z,6.80
2019-01-08T10:35:01.279Z,6.80
2019-01-08T10:37:27.343Z,6.80
2019-01-08T10:39:53.400Z,6.80
2019-01-08T10:42:19.537Z,6.90
2019-01-08T10:44:45.883Z,7.00
2019-01-08T10:47:11.907Z,7.10
2019-01-08T10:49:38.088Z,7.20
2019-01-08T10:52:04.118Z,7.30
2019-01-08T10:54:30.171Z,7.20
2019-01-08T10:56:56.324Z,7.10
2019-01-08T10:59:22.401Z,7.00
2019-01-08T11:01:48.424Z,7.00
2019-01-08T11:04:14.464Z,7.10
2019-01-08T11:06:41.123Z,7.20
2019-01-08T11:09:07.186Z,7.30
2019-01-08T11:11:34.344Z,7.40
2019-01-08T11:14:00.569Z,7.70
2019-01-08T11:16:26.612Z,7.70
2019-01-08T11:18:52.929Z,7.70
2019-01-08T11:21:20.964Z,7.60
2019-01-08T11:23:47.054Z,7.50
2019-01-08T11:26:13.089Z,7.30
2019-01-08T11:28:39.107Z,7.30
2019-01-08T11:31:05.251Z,7.30
2019-01-08T11:33:31.280Z,7.20
2019-01-08T11:35:57.346Z,7.10
2019-01-08T11:38:23.652Z,7.10
2019-01-08T11:40:49.738Z,7.20
2019-01-08T11:43:35.651Z,7.10
2019-01-08T11:46:02.034Z,7.00
2019-01-08T11:48:28.055Z,7.00
2019-01-08T11:50:54.096Z,7.00
2019-01-08T11:53:20.397Z,7.10
2019-01-08T11:55:46.416Z,7.10
2019-01-08T11:58:12.429Z,7.10
2019-01-08T12:00:38.515Z,7.20
2019-01-08T12:03:04.538Z,7.20
2019-01-08T12:05:30.591Z,7.30
2019-01-08T12:07:56.758Z,7.20
2019-01-08T12:10:24.383Z,7.10
2019-01-08T12:12:50.542Z,7.20
2019-01-08T12:15:16.571Z,7.20
2019-01-08T12:17:42.625Z,7.00
2019-01-08T12:20:10.445Z,7.00
2019-01-08T12:22:40.956Z,7.00
2019-01-08T12:25:06.960Z,7.00
2019-01-08T12:27:33.099Z,7.00
2019-01-08T12:29:59.128Z,6.80
2019-01-08T12:32:25.172Z,6.70
2019-01-08T12:34:51.498Z,6.60
2019-01-08T12:37:17.549Z,6.60
2019-01-08T12:39:43.970Z,6.50
2019-01-08T12:42:10.028Z,6.50
2019-01-08T12:44:36.171Z,6.50
2019-01-08T12:47:02.211Z,6.40
2019-01-08T12:49:28.263Z,6.40
2019-01-08T12:51:54.284Z,6.30
2019-01-08T12:54:20.331Z,6.30
2019-01-08T12:56:46.646Z,6.40
2019-01-08T12:59:12.784Z,6.30
2019-01-08T13:01:39.586Z,6.40
2019-01-08T13:04:05.631Z,6.40
2019-01-08T13:06:31.781Z,6.50
2019-01-08T13:08:57.837Z,6.50
2019-01-08T13:11:23.871Z,6.50
2019-01-08T13:13:50.158Z,6.50
2019-01-08T13:16:16.188Z,6.50
2019-01-08T13:18:42.223Z,6.60
2019-01-08T13:21:08.320Z,6.60
2019-01-08T13:23:34.347Z,6.50
2019-01-08T13:26:00.377Z,6.50
2019-01-08T13:28:26.434Z,6.50
2019-01-08T13:30:52.478Z,6.50
2019-01-08T13:33:18.528Z,6.50
2019-01-08T13:35:44.660Z,6.50
2019-01-08T13:38:10.689Z,6.50
2019-01-08T13:40:36.708Z,6.50
2019-01-08T13:43:02.736Z,6.50
2019-01-08T13:45:28.801Z,6.50
2019-01-08T13:47:54.812Z,6.40
2019-01-08T13:50:20.860Z,6.40
2019-01-08T13:52:46.957Z,6.30
2019-01-08T13:55:12.958Z,6.30
2019-01-08T13:57:39.004Z,6.30
2019-01-08T14:00:07.152Z,6.30
2019-01-08T14:02:33.354Z,6.40
2019-01-08T14:04:59.413Z,6.40
2019-01-08T14:07:25.489Z,6.40
2019-01-08T14:09:51.960Z,6.30
2019-01-08T14:12:18.002Z,6.20
2019-01-08T14:14:44.022Z,6.20
2019-01-08T14:17:10.131Z,6.20
2019-01-08T14:19:41.185Z,6.20
2019-01-08T14:22:07.222Z,6.10
2019-01-08T14:24:33.250Z,6.20
2019-01-08T14:26:59.291Z,6.20
2019-01-08T14:29:25.570Z,6.10
2019-01-08T14:31:51.600Z,6.10
2019-01-08T14:34:17.667Z,5.90
2019-01-08T14:36:43.700Z,5.80
2019-01-08T14:39:09.749Z,5.80
2019-01-08T14:41:36.158Z,5.80
2019-01-08T14:44:02.304Z,5.70
2019-01-08T14:46:28.331Z,5.80
2019-01-08T14:48:54.363Z,5.70
2019-01-08T14:51:20.415Z,5.70
2019-01-08T14:53:46.553Z,5.70
2019-01-08T14:56:12.575Z,5.60
2019-01-08T14:58:38.604Z,5.60
2019-01-08T15:01:04.738Z,5.60
2019-01-08T15:03:30.776Z,5.60
2019-01-08T15:05:56.821Z,5.60
2019-01-08T15:08:22.972Z,5.60
2019-01-08T15:10:49.027Z,5.60
2019-01-08T15:13:15.051Z,5.60
2019-01-08T15:15:41.360Z,5.50
2019-01-08T15:18:07.498Z,5.50
2019-01-08T15:20:33.518Z,5.50
2019-01-08T15:22:59.588Z,5.50
2019-01-08T15:25:25.615Z,5.40
2019-01-08T15:27:51.652Z,5.40
2019-01-08T15:30:17.734Z,5.40
2019-01-08T15:32:43.863Z,5.40
2019-01-08T15:35:09.899Z,5.30
2019-01-08T15:37:35.936Z,5.30
2019-01-08T15:40:02.003Z,5.30
2019-01-08T15:42:28.019Z,5.30
2019-01-08T15:44:54.084Z,5.30
2019-01-08T15:47:20.410Z,5.20
2019-01-08T15:49:46.458Z,5.20
2019-01-08T15:52:12.490Z,5.20
2019-01-08T15:54:38.832Z,5.10
2019-01-08T15:57:04.855Z,5.10
2019-01-08T15:59:31.453Z,5.20
2019-01-08T16:01:57.692Z,5.10
2019-01-08T16:04:24.723Z,5.10
2019-01-08T16:06:50.730Z,5.10
2019-01-08T16:09:16.784Z,5.10
2019-01-08T16:11:42.845Z,5.20
2019-01-08T16:14:08.882Z,5.10
2019-01-08T16:16:35.084Z,5.10
2019-01-08T16:19:01.101Z,5.10
2019-01-08T16:21:27.131Z,5.10
2019-01-08T16:23:53.270Z,5.10
2019-01-08T16:26:19.288Z,5.10
2019-01-08T16:28:45.319Z,5.20
2019-01-08T16:31:11.383Z,5.10
2019-01-08T16:33:37.406Z,5.20
2019-01-08T16:36:03.706Z,5.20
2019-01-08T16:38:29.737Z,5.20
2019-01-08T16:40:55.765Z,5.10
2019-01-08T16:43:21.807Z,5.10
2019-01-08T16:45:48.153Z,5.10
2019-01-08T16:48:14.172Z,5.10
2019-01-08T16:50:40.198Z,5.10
2019-01-08T16:53:06.351Z,5.10
2019-01-08T16:55:32.375Z,5.10
2019-01-08T16:57:58.402Z,5.10
2019-01-08T17:00:24.754Z,5.10
2019-01-08T17:02:50.799Z,5.10
2019-01-08T17:05:16.920Z,5.10
2019-01-08T17:07:42.950Z,5.10
2019-01-08T17:10:08.975Z,5.00
2019-01-08T17:12:35.033Z,5.00
2019-01-08T17:15:01.963Z,5.00
2019-01-08T17:17:28.102Z,4.90
2019-01-08T17:19:54.307Z,4.90
2019-01-08T17:22:20.351Z,4.90
2019-01-08T17:24:46.402Z,4.90
2019-01-08T17:27:12.544Z,4.80
2019-01-08T17:29:38.597Z,4.80
2019-01-08T17:32:04.728Z,4.80
2019-01-08T17:34:30.838Z,4.70
2019-01-08T17:36:56.866Z,4.80
2019-01-08T17:39:24.952Z,4.70
2019-01-08T17:41:51.191Z,4.70
2019-01-08T17:44:17.238Z,4.60
2019-01-08T17:46:43.305Z,4.60
2019-01-08T17:49:09.616Z,4.50
2019-01-08T17:51:35.651Z,4.50
2019-01-08T17:54:01.735Z,4.40
2019-01-08T17:56:27.774Z,4.50
2019-01-08T17:58:57.213Z,4.50
2019-01-08T18:01:23.611Z,4.60
2019-01-08T18:03:49.639Z,4.60
2019-01-08T18:06:15.658Z,4.50
2019-01-08T18:08:41.716Z,4.50
2019-01-08T18:11:07.753Z,4.50
2019-01-08T18:13:33.831Z,4.60
2019-01-08T18:16:00.154Z,4.50
2019-01-08T18:18:26.208Z,4.50
2019-01-08T18:20:52.259Z,4.50
2019-01-08T18:23:18.338Z,4.50
2019-01-08T18:25:44.379Z,4.50
2019-01-08T18:28:10.505Z,4.50
2019-01-08T18:30:36.899Z,4.50
2019-01-08T18:33:02.946Z,4.50
2019-01-08T18:35:29.003Z,4.50
2019-01-08T18:37:55.043Z,4.60
2019-01-08T18:40:21.203Z,4.50
2019-01-08T18:42:47.237Z,4.60
2019-01-08T18:45:13.267Z,4.60
2019-01-08T18:47:39.314Z,4.70
2019-01-08T18:50:05.441Z,4.60
2019-01-08T18:52:31.651Z,4.60
2019-01-08T18:54:57.703Z,4.60
2019-01-08T18:57:23.825Z,4.50
2019-01-08T18:59:49.892Z,4.70
2019-01-08T19:02:16.751Z,4.70
2019-01-08T19:04:42.795Z,4.70
2019-01-08T19:07:08.863Z,4.70
2019-01-08T19:09:34.915Z,4.70
2019-01-08T19:12:00.939Z,4.70
2019-01-08T19:14:29.902Z,4.60
2019-01-08T19:16:56.112Z,4.70
2019-01-08T19:19:22.551Z,4.70
2019-01-08T19:21:50.658Z,4.60
2019-01-08T19:24:16.606Z,4.70
2019-01-08T19:26:42.696Z,4.60
2019-01-08T19:29:08.720Z,4.60
2019-01-08T19:31:34.803Z,4.60
2019-01-08T19:34:09.004Z,4.50
2019-01-08T19:36:29.769Z,4.50
2019-01-08T19:38:55.820Z,4.50
2019-01-08T19:41:21.892Z,4.50
2019-01-08T19:43:47.923Z,4.50
2019-01-08T19:46:13.973Z,4.40
2019-01-08T19:48:40.048Z,4.40
2019-01-08T19:51:06.138Z,4.40
2019-01-08T19:53:32.200Z,4.40
2019-01-08T19:55:58.304Z,4.50
2019-01-08T19:58:24.324Z,4.40
2019-01-08T20:00:50.354Z,4.30
2019-01-08T20:03:34.977Z,4.30
2019-01-08T20:06:04.665Z,4.30
2019-01-08T20:08:48.467Z,4.30
2019-01-08T20:11:06.716Z,4.30
2019-01-08T20:13:32.783Z,4.20
2019-01-08T20:15:58.880Z,4.20
2019-01-08T20:18:25.089Z,4.10
2019-01-08T20:20:51.199Z,4.10
2019-01-08T20:23:18.647Z,4.10
2019-01-08T20:25:44.739Z,4.10
2019-01-08T20:28:14.835Z,4.00
2019-01-08T20:30:40.949Z,3.90
2019-01-08T20:35:46.179Z,3.80
2019-01-08T20:38:19.943Z,3.80
2019-01-08T20:40:52.400Z,3.80
2019-01-08T20:43:18.523Z,3.70
2019-01-08T20:45:44.653Z,3.60
2019-01-08T20:48:10.958Z,3.60
2019-01-08T20:50:37.116Z,3.50
2019-01-08T20:53:10.531Z,3.50
2019-01-08T20:55:36.745Z,3.50
2019-01-08T20:58:02.853Z,3.50
2019-01-08T21:00:29.012Z,3.40
2019-01-08T21:02:55.052Z,3.40
2019-01-08T21:05:21.525Z,3.40
2019-01-08T21:07:51.628Z,3.40
2019-01-08T21:10:17.719Z,3.40
2019-01-08T21:12:46.731Z,3.50
2019-01-08T21:15:12.920Z,3.50
2019-01-08T21:17:41.703Z,3.50
2019-01-08T21:20:07.848Z,3.40
2019-01-08T21:22:35.941Z,3.50
2019-01-08T21:25:02.323Z,3.40
2019-01-08T21:27:28.357Z,3.40
2019-01-08T21:29:54.757Z,3.40
2019-01-08T21:32:23.236Z,3.40
2019-01-08T21:34:49.469Z,3.40
2019-01-08T21:37:15.651Z,3.50
2019-01-08T21:39:41.804Z,3.50
2019-01-08T21:42:08.110Z,3.40
2019-01-08T21:44:34.599Z,3.40
2019-01-08T21:47:00.733Z,3.40
2019-01-08T21:49:26.818Z,3.40
2019-01-08T21:51:52.985Z,3.50
2019-01-08T21:54:20.301Z,3.50
2019-01-08T21:56:46.486Z,3.50
2019-01-08T21:59:12.621Z,3.60
2019-01-08T22:01:38.719Z,3.60
2019-01-08T22:04:04.901Z,3.50
2019-01-08T22:06:31.092Z,3.50
2019-01-08T22:08:57.249Z,3.50
2019-01-08T22:11:23.291Z,3.50
2019-01-08T22:13:49.392Z,3.60
2019-01-08T22:16:17.374Z,3.60
2019-01-08T22:18:43.583Z,3.70
2019-01-08T22:21:09.690Z,3.70
2019-01-08T22:23:35.735Z,3.70
2019-01-08T22:26:01.755Z,3.60
2019-01-08T22:28:27.821Z,3.70
2019-01-08T22:30:53.897Z,3.70
2019-01-08T22:33:19.932Z,3.70
2019-01-08T22:35:45.976Z,3.70
2019-01-08T22:38:12.020Z,3.70
2019-01-08T22:40:38.064Z,3.70
2019-01-08T22:43:04.207Z,3.70
2019-01-08T22:45:30.264Z,3.70
2019-01-08T22:47:56.314Z,3.70
2019-01-08T22:50:22.390Z,3.80
2019-01-08T22:52:48.424Z,3.70
2019-01-08T22:55:14.600Z,3.80
2019-01-08T22:57:40.821Z,3.80
2019-01-08T23:00:12.668Z,3.80
2019-01-08T23:02:38.818Z,3.80
2019-01-08T23:05:10.821Z,3.90
2019-01-08T23:07:33.075Z,3.90
2019-01-08T23:09:59.134Z,3.90
2019-01-08T23:12:25.296Z,3.90
2019-01-08T23:14:51.361Z,3.90
2019-01-08T23:17:17.531Z,3.90
2019-01-08T23:19:43.743Z,3.90
2019-01-08T23:22:13.286Z,3.90
2019-01-08T23:24:39.340Z,3.90
2019-01-08T23:27:05.499Z,4.00
2019-01-08T23:29:31.572Z,3.90
2019-01-08T23:31:57.608Z,4.00
2019-01-08T23:34:23.679Z,3.90
2019-01-08T23:36:49.728Z,3.90
2019-01-08T23:39:15.771Z,3.90
2019-01-08T23:41:41.999Z,4.00
2019-01-08T23:44:08.121Z,3.90
2019-01-08T23:46:34.212Z,4.00
2019-01-08T23:49:00.261Z,4.00
2019-01-08T23:51:26.321Z,4.00
2019-01-08T23:53:53.992Z,4.00
2019-01-08T23:56:20.490Z,4.00
2019-01-08T23:58:46.540Z,4.00
